createdAt,value
2022-12-09T00:02:04.198Z,24.30
2022-12-09T00:04:32.248Z,24.73
2022-12-09T00:06:59.749Z,23.40
2022-12-09T00:09:27.373Z,24.85
2022-12-09T00:11:55.276Z,24.55
2022-12-09T00:14:22.783Z,24.95
2022-12-09T00:16:50.437Z,23.67
2022-12-09T00:19:18.306Z,24.77
2022-12-09T00:21:45.793Z,26.20
2022-12-09T00:24:13.891Z,25.17
2022-12-09T00:26:41.935Z,26.45
2022-12-09T00:29:10.869Z,25.62
2022-12-09T00:31:39.413Z,25.00
2022-12-09T00:34:10.899Z,26.52
2022-12-09T00:36:39.067Z,25.12
2022-12-09T00:39:07.007Z,26.98
2022-12-09T00:41:34.589Z,27.52
2022-12-09T00:44:02.001Z,26.60
2022-12-09T00:46:30.361Z,27.15
2022-12-09T00:48:58.113Z,27.40
2022-12-09T00:51:25.957Z,27.92
2022-12-09T00:53:55.995Z,26.87
2022-12-09T00:56:25.376Z,27.85
2022-12-09T00:58:53.260Z,27.60
2022-12-09T01:01:21.176Z,26.23
2022-12-09T01:03:48.975Z,27.60
2022-12-09T01:06:23.242Z,27.52
2022-12-09T01:08:51.395Z,26.00
2022-12-09T01:11:21.548Z,27.45
2022-12-09T01:13:49.892Z,27.30
2022-12-09T01:16:20.493Z,28.27
2022-12-09T01:18:49.907Z,28.77
2022-12-09T01:21:17.829Z,27.00
2022-12-09T01:23:45.370Z,26.52
2022-12-09T01:26:12.825Z,27.75
2022-12-09T01:28:41.001Z,26.23
2022-12-09T01:31:11.181Z,28.30
2022-12-09T01:33:39.257Z,27.40
2022-12-09T01:36:12.376Z,27.08
2022-12-09T01:38:40.171Z,26.25
2022-12-09T01:41:08.209Z,28.70
2022-12-09T01:43:35.735Z,27.42
2022-12-09T01:46:03.317Z,26.85
2022-12-09T01:48:45.015Z,27.23
2022-12-09T01:51:19.625Z,26.70
2022-12-09T01:53:50.210Z,27.87
2022-12-09T01:56:33.456Z,26.62
2022-12-09T01:59:07.229Z,26.17
2022-12-09T02:01:35.015Z,27.52
2022-12-09T02:04:04.018Z,28.75
2022-12-09T02:06:31.582Z,27.70
2022-12-09T02:08:59.643Z,27.90
2022-12-09T02:11:38.707Z,27.13
2022-12-09T02:14:15.262Z,26.60
2022-12-09T02:17:01.815Z,27.13
2022-12-09T02:19:51.148Z,27.62
2022-12-09T02:22:24.765Z,26.65
2022-12-09T02:25:02.759Z,28.85
2022-12-09T02:27:38.253Z,27.25
2022-12-09T02:30:26.879Z,29.63
2022-12-09T02:33:32.132Z,28.75
2022-12-09T02:36:04.108Z,28.05
2022-12-09T02:38:33.459Z,27.30
2022-12-09T02:41:31.100Z,28.33
2022-12-09T02:44:14.293Z,29.30
2022-12-09T02:46:42.868Z,29.45
2022-12-09T02:49:11.543Z,30.73
2022-12-09T02:51:42.707Z,28.48
2022-12-09T02:54:16.018Z,28.73
2022-12-09T02:56:53.540Z,29.30
2022-12-09T02:59:22.190Z,30.33
2022-12-09T03:02:12.513Z,29.27
2022-12-09T03:04:42.925Z,28.27
2022-12-09T03:07:34.758Z,28.73
2022-12-09T03:10:25.814Z,28.75
2022-12-09T03:13:01.080Z,29.33
2022-12-09T03:15:31.898Z,28.98
2022-12-09T03:18:01.797Z,29.00
2022-12-09T03:20:31.069Z,28.33
2022-12-09T03:23:01.388Z,28.65
2022-12-09T03:25:34.981Z,29.35
2022-12-09T03:28:06.185Z,30.50
2022-12-09T03:30:39.779Z,29.05
2022-12-09T03:33:09.488Z,30.55
2022-12-09T03:35:41.425Z,30.58
2022-12-09T03:38:11.510Z,30.83
2022-12-09T03:40:39.544Z,31.45
2022-12-09T03:43:16.383Z,30.02
2022-12-09T03:45:44.192Z,29.73
2022-12-09T03:48:12.172Z,29.00
2022-12-09T03:50:43.225Z,30.77
2022-12-09T03:53:14.829Z,29.63
2022-12-09T03:55:55.599Z,30.83
2022-12-09T03:58:23.585Z,32.58
2022-12-09T04:00:51.860Z,32.90
2022-12-09T04:03:19.920Z,33.10
2022-12-09T04:05:47.787Z,32.75
2022-12-09T04:08:15.235Z,32.58
2022-12-09T04:10:43.029Z,33.08
2022-12-09T04:13:10.535Z,32.75
2022-12-09T04:15:38.090Z,31.67
2022-12-09T04:18:06.469Z,32.88
2022-12-09T04:20:33.970Z,32.50
2022-12-09T04:23:01.367Z,31.52
2022-12-09T04:25:29.182Z,32.78
2022-12-09T04:27:57.269Z,32.08
2022-12-09T04:30:24.775Z,33.88
2022-12-09T04:32:52.589Z,34.53
2022-12-09T04:35:20.016Z,32.63
2022-12-09T04:37:47.403Z,32.20
2022-12-09T04:40:21.226Z,31.85
2022-12-09T04:42:51.233Z,31.37
2022-12-09T04:45:18.932Z,34.72
2022-12-09T04:47:46.649Z,35.25
2022-12-09T04:50:14.443Z,35.70
2022-12-09T04:52:43.187Z,34.67
2022-12-09T04:55:13.188Z,34.33
2022-12-09T04:57:40.600Z,33.08
2022-12-09T05:00:10.582Z,32.55
2022-12-09T05:02:38.922Z,33.85
2022-12-09T05:05:07.067Z,34.50
2022-12-09T05:07:35.061Z,34.28
2022-12-09T05:10:03.061Z,34.70
2022-12-09T05:12:32.926Z,33.05
2022-12-09T05:15:00.818Z,34.33
2022-12-09T05:17:28.307Z,35.70
2022-12-09T05:19:55.855Z,33.97
2022-12-09T05:22:23.900Z,37.05
2022-12-09T05:24:51.425Z,36.45
2022-12-09T05:27:19.102Z,38.22
2022-12-09T05:29:46.965Z,37.85
2022-12-09T05:32:14.692Z,38.25
2022-12-09T05:34:42.657Z,37.53
2022-12-09T05:37:14.685Z,37.05
2022-12-09T05:39:42.468Z,36.63
2022-12-09T05:42:10.551Z,38.22
2022-12-09T05:44:38.002Z,37.10
2022-12-09T05:47:05.546Z,36.65
2022-12-09T05:49:34.751Z,38.03
2022-12-09T05:52:02.885Z,37.20
2022-12-09T05:54:30.982Z,36.42
2022-12-09T05:57:01.297Z,37.13
2022-12-09T05:59:28.850Z,39.13
2022-12-09T06:01:56.802Z,38.40
2022-12-09T06:04:24.699Z,39.47
2022-12-09T06:06:52.789Z,38.03
2022-12-09T06:09:20.386Z,39.45
2022-12-09T06:11:48.486Z,39.63
2022-12-09T06:14:16.176Z,38.92
2022-12-09T06:16:44.082Z,42.25
2022-12-09T06:19:12.818Z,40.83
2022-12-09T06:21:41.076Z,40.08
2022-12-09T06:24:08.775Z,39.45
2022-12-09T06:26:36.905Z,39.05
2022-12-09T06:29:04.408Z,40.45
2022-12-09T06:31:32.487Z,39.58
2022-12-09T06:34:01.107Z,42.30
2022-12-09T06:36:30.387Z,41.90
2022-12-09T06:39:03.103Z,45.08
2022-12-09T06:41:35.825Z,38.72
2022-12-09T06:44:03.524Z,42.60
2022-12-09T06:46:31.348Z,40.38
2022-12-09T06:48:59.493Z,43.63
2022-12-09T06:51:27.463Z,38.72
2022-12-09T06:53:55.370Z,36.53
2022-12-09T06:56:23.419Z,34.40
2022-12-09T06:58:51.289Z,33.10
2022-12-09T07:01:24.776Z,34.25
2022-12-09T07:03:55.736Z,33.77
2022-12-09T07:06:40.281Z,34.83
2022-12-09T07:09:11.596Z,35.45
2022-12-09T07:11:40.466Z,34.53
2022-12-09T07:14:08.884Z,36.20
2022-12-09T07:16:36.731Z,36.55
2022-12-09T07:19:04.565Z,32.25
2022-12-09T07:21:33.306Z,31.42
2022-12-09T07:24:02.942Z,30.62
2022-12-09T07:26:32.773Z,32.70
2022-12-09T07:29:05.210Z,34.05
2022-12-09T07:31:33.610Z,31.25
2022-12-09T07:34:02.297Z,31.17
2022-12-09T07:36:32.202Z,31.92
2022-12-09T07:39:02.540Z,32.28
2022-12-09T07:41:30.365Z,31.85
2022-12-09T07:43:58.002Z,31.62
2022-12-09T07:46:27.571Z,33.13
2022-12-09T07:48:57.328Z,31.95
2022-12-09T07:51:25.408Z,33.53
2022-12-09T07:53:53.789Z,34.40
2022-12-09T07:56:22.367Z,39.90
2022-12-09T07:58:53.361Z,31.58
2022-12-09T08:01:24.568Z,33.20
2022-12-09T08:03:52.471Z,33.25
2022-12-09T08:06:22.656Z,31.08
2022-12-09T08:08:50.620Z,31.73
2022-12-09T08:11:25.382Z,28.83
2022-12-09T08:13:54.112Z,29.60
2022-12-09T08:16:22.820Z,29.80
2022-12-09T08:18:51.808Z,26.77
2022-12-09T08:21:25.032Z,25.02
2022-12-09T08:23:55.100Z,27.60
2022-12-09T08:26:25.519Z,28.38
2022-12-09T08:28:53.587Z,28.85
2022-12-09T08:31:23.754Z,27.48
2022-12-09T08:33:53.028Z,28.05
2022-12-09T08:36:23.909Z,25.98
2022-12-09T08:38:51.790Z,28.05
2022-12-09T08:41:38.209Z,27.17
2022-12-09T08:44:18.791Z,26.35
2022-12-09T08:46:48.570Z,26.40
2022-12-09T08:49:22.027Z,28.12
2022-12-09T08:51:51.732Z,25.50
2022-12-09T08:54:20.068Z,25.67
2022-12-09T08:56:50.035Z,26.80
2022-12-09T08:59:17.887Z,25.75
2022-12-09T09:01:45.867Z,25.92
2022-12-09T09:04:16.316Z,23.35
2022-12-09T09:06:45.953Z,22.87
2022-12-09T09:09:15.105Z,21.30
2022-12-09T09:11:43.931Z,23.67
2022-12-09T09:14:12.606Z,23.05
2022-12-09T09:16:43.147Z,23.30
2022-12-09T09:19:18.505Z,24.23
2022-12-09T09:21:46.491Z,24.75
2022-12-09T09:24:18.154Z,26.50
2022-12-09T09:26:47.110Z,26.80
2022-12-09T09:29:16.720Z,26.62
2022-12-09T09:31:44.882Z,26.75
2022-12-09T09:34:14.211Z,26.00
2022-12-09T09:36:42.223Z,25.90
2022-12-09T09:39:10.459Z,22.73
2022-12-09T09:42:00.441Z,24.02
2022-12-09T09:44:34.790Z,24.85
2022-12-09T09:47:05.719Z,24.90
2022-12-09T09:49:56.376Z,25.58
2022-12-09T09:52:26.808Z,25.05
2022-12-09T09:54:56.332Z,24.83
2022-12-09T09:57:41.150Z,24.33
2022-12-09T10:00:26.652Z,27.58
2022-12-09T10:03:04.953Z,25.62
2022-12-09T10:05:35.886Z,25.98
2022-12-09T10:08:29.052Z,27.13
2022-12-09T10:11:04.832Z,26.40
2022-12-09T10:13:52.515Z,25.98
2022-12-09T10:16:27.225Z,25.02
2022-12-09T10:21:38.725Z,25.67
2022-12-09T10:24:20.637Z,25.62
2022-12-09T10:26:58.916Z,25.58
2022-12-09T10:29:49.359Z,26.90
2022-12-09T10:32:20.558Z,31.42
2022-12-09T10:34:48.924Z,27.83
2022-12-09T10:37:33.188Z,30.55
2022-12-09T10:40:18.090Z,29.95
2022-12-09T10:43:08.089Z,30.70
2022-12-09T10:46:16.778Z,30.90
2022-12-09T10:48:56.224Z,28.27
2022-12-09T10:51:29.906Z,27.62
2022-12-09T10:54:19.314Z,27.55
2022-12-09T10:57:23.499Z,27.08
2022-12-09T11:00:22.878Z,27.30
2022-12-09T11:02:54.838Z,26.62
2022-12-09T11:05:28.660Z,26.58
2022-12-09T11:07:58.377Z,26.12
2022-12-09T11:10:28.538Z,23.65
2022-12-09T11:13:03.801Z,23.38
2022-12-09T11:15:39.005Z,25.83
2022-12-09T11:18:23.882Z,26.20
2022-12-09T11:21:00.971Z,28.08
2022-12-09T11:23:29.957Z,26.85
2022-12-09T11:26:01.857Z,28.10
2022-12-09T11:28:38.440Z,25.23
2022-12-09T11:31:31.870Z,27.05
2022-12-09T11:34:04.468Z,27.23
2022-12-09T11:36:36.775Z,28.85
2022-12-09T11:39:16.251Z,26.87
2022-12-09T11:42:16.123Z,25.62
2022-12-09T11:44:56.725Z,25.37
2022-12-09T11:48:20.318Z,27.25
2022-12-09T11:50:33.176Z,26.65
2022-12-09T11:53:13.032Z,31.10
2022-12-09T11:55:46.388Z,25.80
2022-12-09T11:58:23.684Z,24.25
2022-12-09T12:00:57.066Z,25.55
2022-12-09T12:03:41.279Z,24.50
2022-12-09T12:06:24.439Z,23.63
2022-12-09T12:09:00.991Z,24.42
2022-12-09T12:11:34.694Z,25.40
2022-12-09T12:14:15.282Z,22.85
2022-12-09T12:16:52.772Z,24.63
2022-12-09T12:19:39.775Z,24.98
2022-12-09T12:22:25.412Z,24.33
2022-12-09T12:25:30.138Z,24.48
2022-12-09T12:28:00.467Z,24.10
2022-12-09T12:30:56.918Z,23.15
2022-12-09T12:34:16.160Z,22.35
2022-12-09T12:36:44.665Z,25.17
2022-12-09T12:39:42.891Z,23.75
2022-12-09T12:43:04.486Z,24.52
2022-12-09T12:45:58.295Z,23.25
2022-12-09T12:49:03.132Z,22.48
2022-12-09T12:51:43.240Z,23.38
2022-12-09T12:54:26.451Z,21.42
2022-12-09T12:57:02.656Z,22.37
2022-12-09T12:59:40.637Z,22.85
2022-12-09T13:02:33.020Z,23.33
2022-12-09T13:05:04.397Z,23.50
2022-12-09T13:07:34.173Z,23.60
2022-12-09T13:10:21.712Z,21.80
2022-12-09T13:12:54.027Z,24.40
2022-12-09T13:15:25.771Z,21.58
2022-12-09T13:17:53.991Z,24.90
2022-12-09T13:20:28.737Z,24.90
2022-12-09T13:23:17.747Z,21.95
2022-12-09T13:26:18.848Z,20.33
2022-12-09T13:28:54.798Z,21.40
2022-12-09T13:31:28.316Z,20.40
2022-12-09T13:34:14.626Z,19.33
2022-12-09T13:36:47.402Z,21.05
2022-12-09T13:39:39.529Z,21.35
2022-12-09T13:42:46.346Z,21.15
2022-12-09T13:45:34.114Z,21.60
2022-12-09T13:48:08.695Z,21.80
2022-12-09T13:50:44.814Z,23.00
2022-12-09T13:53:21.634Z,22.73
2022-12-09T13:56:07.954Z,20.85
2022-12-09T13:59:03.050Z,21.40
2022-12-09T14:01:48.792Z,22.07
2022-12-09T14:04:26.591Z,23.80
2022-12-09T14:07:26.316Z,22.92
2022-12-09T14:09:55.380Z,25.62
2022-12-09T14:12:25.631Z,23.33
2022-12-09T14:14:54.565Z,22.80
2022-12-09T14:17:25.099Z,23.05
2022-12-09T14:19:52.375Z,23.60
2022-12-09T14:22:22.492Z,24.37
2022-12-09T14:24:54.905Z,23.25
2022-12-09T14:27:30.186Z,25.70
2022-12-09T14:30:00.081Z,24.35
2022-12-09T14:32:37.821Z,24.37
2022-12-09T14:35:06.309Z,23.92
2022-12-09T14:37:50.086Z,21.70
2022-12-09T14:40:39.178Z,26.37
2022-12-09T14:43:31.314Z,25.23
2022-12-09T14:46:04.227Z,23.77
2022-12-09T14:48:34.685Z,25.45
2022-12-09T14:51:20.374Z,25.37
2022-12-09T14:54:01.806Z,22.45
2022-12-09T14:56:30.969Z,25.02
2022-12-09T14:59:05.878Z,23.62
2022-12-09T15:01:59.111Z,23.65
2022-12-09T15:04:32.760Z,24.27
2022-12-09T15:07:06.624Z,25.88
2022-12-09T15:09:34.408Z,23.12
2022-12-09T15:12:02.267Z,24.33
2022-12-09T15:14:29.713Z,23.58
2022-12-09T15:16:58.372Z,22.17
2022-12-09T15:19:58.773Z,24.08
2022-12-09T15:22:33.168Z,23.87
2022-12-09T15:25:03.412Z,23.02
2022-12-09T15:27:31.573Z,22.70
2022-12-09T15:29:59.417Z,23.52
2022-12-09T15:32:29.766Z,25.12
2022-12-09T15:35:16.783Z,28.60
2022-12-09T15:37:45.806Z,25.58
2022-12-09T15:40:18.111Z,25.20
2022-12-09T15:42:51.124Z,1.60
2022-12-09T15:45:22.355Z,25.88
2022-12-09T15:48:12.564Z,23.77
2022-12-09T15:50:46.301Z,22.95
2022-12-09T15:53:23.269Z,23.33
2022-12-09T15:56:36.045Z,23.30
2022-12-09T15:59:17.572Z,22.90
2022-12-09T16:01:54.371Z,22.70
2022-12-09T16:04:27.796Z,23.75
2022-12-09T16:06:57.073Z,24.00
2022-12-09T16:09:24.931Z,23.30
2022-12-09T16:11:56.345Z,21.60
2022-12-09T16:14:26.749Z,23.50
2022-12-09T16:17:02.455Z,23.48
2022-12-09T16:19:41.148Z,23.90
2022-12-09T16:22:29.595Z,23.10
2022-12-09T16:25:22.458Z,24.42
2022-12-09T16:28:00.930Z,23.10
2022-12-09T16:30:32.908Z,22.45
2022-12-09T16:33:03.054Z,21.98
2022-12-09T16:35:45.357Z,21.42
2022-12-09T16:38:19.800Z,23.48
2022-12-09T16:40:48.769Z,22.42
2022-12-09T16:43:17.851Z,22.85
2022-12-09T16:46:01.499Z,23.83
2022-12-09T16:48:31.291Z,23.13
2022-12-09T16:51:12.037Z,22.02
2022-12-09T16:53:45.857Z,22.50
2022-12-09T16:56:23.263Z,22.70
2022-12-09T16:58:52.523Z,22.92
2022-12-09T17:01:22.505Z,22.27
2022-12-09T17:03:54.523Z,23.80
2022-12-09T17:06:23.776Z,22.02
2022-12-09T17:08:52.212Z,23.12
2022-12-09T17:11:22.322Z,23.58
2022-12-09T17:13:51.547Z,21.35
2022-12-09T17:16:27.103Z,22.52
2022-12-09T17:18:55.679Z,22.02
2022-12-09T17:21:25.392Z,22.67
2022-12-09T17:23:54.349Z,21.33
2022-12-09T17:26:23.911Z,21.40
2022-12-09T17:28:58.256Z,21.58
2022-12-09T17:31:30.836Z,20.17
2022-12-09T17:33:59.086Z,20.92
2022-12-09T17:36:27.463Z,21.17
2022-12-09T17:39:00.399Z,19.75
2022-12-09T17:41:29.183Z,21.37
2022-12-09T17:44:05.680Z,20.90
2022-12-09T17:46:34.319Z,19.67
2022-12-09T17:49:04.779Z,20.62
2022-12-09T17:51:36.289Z,21.02
2022-12-09T17:54:08.435Z,19.27
2022-12-09T17:56:36.121Z,20.20
2022-12-09T17:59:08.792Z,18.40
2022-12-09T18:01:37.690Z,19.95
2022-12-09T18:04:09.851Z,19.58
2022-12-09T18:06:43.282Z,20.77
2022-12-09T18:09:13.416Z,18.95
2022-12-09T18:11:41.589Z,20.73
2022-12-09T18:14:10.299Z,18.08
2022-12-09T18:16:40.855Z,18.10
2022-12-09T18:19:13.520Z,16.90
2022-12-09T18:21:41.860Z,16.10
2022-12-09T18:24:09.900Z,16.60
2022-12-09T18:26:41.561Z,16.85
2022-12-09T18:29:13.017Z,17.10
2022-12-09T18:31:41.607Z,15.52
2022-12-09T18:34:10.596Z,15.65
2022-12-09T18:36:38.324Z,14.98
2022-12-09T18:39:06.831Z,16.27
2022-12-09T18:41:35.386Z,15.20
2022-12-09T18:44:09.802Z,14.55
2022-12-09T18:46:45.015Z,13.73
2022-12-09T18:49:14.323Z,13.52
2022-12-09T18:51:45.918Z,13.40
2022-12-09T18:54:20.698Z,14.32
2022-12-09T18:56:48.757Z,13.40
2022-12-09T18:59:17.856Z,14.48
2022-12-09T19:01:50.997Z,14.15
2022-12-09T19:04:22.587Z,13.25
2022-12-09T19:06:53.205Z,13.23
2022-12-09T19:09:24.893Z,14.20
2022-12-09T19:11:54.910Z,13.60
2022-12-09T19:14:24.552Z,14.13
2022-12-09T19:16:55.274Z,14.98
2022-12-09T19:19:26.525Z,15.20
2022-12-09T19:21:55.627Z,15.13
2022-12-09T19:24:26.146Z,14.00
2022-12-09T19:26:57.193Z,15.30
2022-12-09T19:29:28.463Z,13.43
2022-12-09T19:31:58.141Z,13.50
2022-12-09T19:34:29.759Z,13.02
2022-12-09T19:37:00.873Z,12.77
2022-12-09T19:39:31.930Z,11.38
2022-12-09T19:42:01.152Z,12.50
2022-12-09T19:44:59.396Z,11.52
2022-12-09T19:47:20.099Z,12.00
2022-12-09T19:49:49.902Z,11.95
2022-12-09T19:52:18.902Z,12.43
2022-12-09T19:54:49.001Z,12.23
2022-12-09T19:57:18.919Z,11.25
2022-12-09T19:59:47.696Z,11.20
2022-12-09T20:02:16.190Z,11.90
2022-12-09T20:04:49.063Z,11.98
2022-12-09T20:07:19.536Z,11.00
2022-12-09T20:09:50.329Z,10.95
2022-12-09T20:12:19.615Z,11.30
2022-12-09T20:14:48.927Z,11.98
2022-12-09T20:17:17.793Z,11.25
2022-12-09T20:19:45.935Z,10.75
2022-12-09T20:22:20.011Z,10.18
2022-12-09T20:24:48.709Z,10.25
2022-12-09T20:27:17.901Z,10.00
2022-12-09T20:29:46.519Z,9.85
2022-12-09T20:32:15.241Z,9.93
2022-12-09T20:34:44.417Z,9.65
2022-12-09T20:37:13.111Z,9.60
2022-12-09T20:39:41.661Z,9.30
2022-12-09T20:42:10.274Z,9.48
2022-12-09T20:44:38.445Z,8.63
2022-12-09T20:47:08.141Z,9.15
2022-12-09T20:49:38.014Z,8.93
2022-12-09T20:52:05.962Z,9.15
2022-12-09T20:54:40.099Z,8.40
2022-12-09T20:57:10.622Z,8.70
2022-12-09T20:59:38.950Z,7.80
2022-12-09T21:02:13.452Z,8.93
2022-12-09T21:07:11.182Z,8.15
2022-12-09T21:09:39.446Z,8.32
2022-12-09T21:12:08.307Z,7.87
2022-12-09T21:14:37.418Z,9.57
2022-12-09T21:17:05.818Z,9.13
2022-12-09T21:19:34.946Z,8.38
2022-12-09T21:22:04.978Z,10.27
2022-12-09T21:24:34.339Z,11.27
2022-12-09T21:27:04.947Z,10.75
2022-12-09T21:29:33.524Z,10.48
2022-12-09T21:32:02.534Z,12.45
2022-12-09T21:34:31.777Z,13.00
2022-12-09T21:37:00.218Z,12.70
2022-12-09T21:39:29.649Z,16.20
2022-12-09T21:41:58.792Z,15.55
2022-12-09T21:44:27.559Z,17.30
2022-12-09T21:46:55.520Z,16.70
2022-12-09T21:49:24.372Z,14.55
2022-12-09T21:51:52.395Z,17.27
2022-12-09T21:54:19.744Z,18.48
2022-12-09T21:56:47.437Z,19.60
2022-12-09T21:59:14.899Z,17.58
2022-12-09T22:01:43.023Z,23.65
2022-12-09T22:04:12.935Z,17.98
2022-12-09T22:06:40.472Z,12.57
2022-12-09T22:09:09.791Z,12.48
2022-12-09T22:11:38.438Z,10.90
2022-12-09T22:14:07.576Z,11.05
2022-12-09T22:16:40.725Z,11.52
2022-12-09T22:19:12.981Z,10.73
2022-12-09T22:21:40.364Z,10.35
2022-12-09T22:24:09.271Z,10.82
2022-12-09T22:26:36.987Z,10.98
2022-12-09T22:29:05.346Z,11.60
2022-12-09T22:31:36.411Z,10.93
2022-12-09T22:34:15.218Z,10.90
2022-12-09T22:36:43.338Z,10.45
2022-12-09T22:39:14.366Z,11.77
2022-12-09T22:41:43.442Z,10.88
2022-12-09T22:44:15.498Z,10.90
2022-12-09T22:46:43.051Z,14.02
2022-12-09T22:49:12.781Z,17.85
2022-12-09T22:51:40.163Z,16.27
2022-12-09T22:54:08.383Z,19.05
2022-12-09T22:56:38.154Z,16.70
2022-12-09T22:59:05.762Z,19.45
2022-12-09T23:01:35.635Z,23.45
2022-12-09T23:04:04.960Z,18.17
2022-12-09T23:06:35.425Z,19.48
2022-12-09T23:09:03.736Z,20.02
2022-12-09T23:11:31.627Z,20.98
2022-12-09T23:14:00.110Z,21.50
2022-12-09T23:16:28.363Z,20.80
2022-12-09T23:18:57.226Z,19.58
2022-12-09T23:21:27.462Z,18.65
2022-12-09T23:23:58.319Z,18.77
2022-12-09T23:26:28.107Z,18.12
2022-12-09T23:28:58.055Z,17.27
2022-12-09T23:31:29.465Z,15.73
2022-12-09T23:33:57.509Z,16.08
2022-12-09T23:36:27.508Z,15.55
2022-12-09T23:38:55.086Z,15.20
2022-12-09T23:41:23.666Z,16.65
2022-12-09T23:43:51.960Z,16.60
2022-12-09T23:46:25.014Z,14.93
2022-12-09T23:48:54.059Z,14.80
2022-12-09T23:51:25.371Z,15.45
2022-12-09T23:53:55.826Z,15.38
2022-12-09T23:56:25.675Z,15.95
2022-12-09T23:58:55.520Z,16.77
